Time;durP1;ratioP1;P1;durP2;ratioP2;P2;SDS_P1;SDS_P2;PMS_P1;PMS_P2;Temp;Humidity;BMP_temperature;BMP_pressure;BME280_temperature;BME280_humidity;BME280_pressure;Samples;Min_cycle;Max_cycle;Signal;HPM_P1;HPM_P2
2022/08/29 00:01:27;;;;;;;6.18;3.20;;;23.40;98.60;;;;;;4863302;29;20053;-88
2022/08/29 00:03:56;;;;;;;6.10;2.90;;;23.40;98.90;;;;;;4860335;29;20048;-88
2022/08/29 00:06:24;;;;;;;6.82;3.20;;;23.40;99.10;;;;;;4860406;29;20206;-88
2022/08/29 00:08:52;;;;;;;5.72;3.05;;;23.40;99.40;;;;;;4862246;29;20049;-89
2022/08/29 00:11:19;;;;;;;5.82;3.70;;;23.30;99.20;;;;;;4878930;29;20088;-89
2022/08/29 00:13:47;;;;;;;5.03;3.15;;;23.30;99.40;;;;;;4861872;29;20601;-89
2022/08/29 00:16:15;;;;;;;6.13;3.00;;;23.30;99.40;;;;;;4877605;29;20045;-89
2022/08/29 00:18:42;;;;;;;5.82;3.35;;;23.30;99.60;;;;;;4878647;29;20929;-89
2022/08/29 00:21:10;;;;;;;5.60;3.05;;;23.30;99.60;;;;;;4859832;29;20116;-89
2022/08/29 00:23:38;;;;;;;4.90;2.97;;;23.20;99.70;;;;;;4863297;29;20044;-89
2022/08/29 00:26:06;;;;;;;6.07;3.25;;;23.20;99.50;;;;;;4857975;29;20104;-89
2022/08/29 00:28:34;;;;;;;6.95;3.20;;;23.20;99.60;;;;;;4860928;29;20506;-88
2022/08/29 00:31:01;;;;;;;7.63;3.72;;;23.20;99.80;;;;;;4856611;29;20140;-88
2022/08/29 00:33:29;;;;;;;5.40;3.88;;;23.20;99.80;;;;;;4861473;29;20081;-88
2022/08/29 00:35:57;;;;;;;6.10;3.63;;;23.10;99.80;;;;;;4861951;29;20053;-88
2022/08/29 00:38:25;;;;;;;6.90;3.35;;;23.10;99.50;;;;;;4864218;29;20561;-89
2022/08/29 00:40:56;;;;;;;6.00;3.55;;;23.10;99.50;;;;;;4856545;29;20056;-89
2022/08/29 00:43:28;;;;;;;5.63;3.60;;;23.10;99.70;;;;;;4876147;29;20045;-89
2022/08/29 00:46:14;;;;;;;6.13;3.35;;;23.10;99.60;;;;;;4864530;29;20057;-88
2022/08/29 00:48:45;;;;;;;5.53;2.95;;;23.10;99.50;;;;;;4867973;29;20047;-89
2022/08/29 00:51:18;;;;;;;6.45;3.13;;;23.10;99.50;;;;;;4877855;29;20410;-89
2022/08/29 00:53:51;;;;;;;6.00;3.63;;;23.00;99.60;;;;;;4873134;29;20056;-88
2022/08/29 00:56:19;;;;;;;5.75;3.45;;;22.90;99.90;;;;;;4863975;29;20060;-89
2022/08/29 00:58:52;;;;;;;6.78;3.33;;;22.90;99.90;;;;;;4878871;29;20041;-89
2022/08/29 01:01:21;;;;;;;7.28;3.90;;;22.90;99.90;;;;;;4864278;29;20053;-89
2022/08/29 01:03:51;;;;;;;7.10;4.25;;;22.90;99.90;;;;;;4893613;29;20049;-89
2022/08/29 01:06:19;;;;;;;9.20;3.35;;;22.90;99.90;;;;;;4861218;29;20507;-88
2022/08/29 01:08:47;;;;;;;8.07;4.07;;;22.80;99.90;;;;;;4866419;29;20037;-88
2022/08/29 01:14:13;;;;;;;5.47;3.60;;;22.70;99.90;;;;;;4874751;29;20048;-88
2022/08/29 01:16:41;;;;;;;5.93;3.47;;;22.80;99.90;;;;;;4879687;29;20048;-88
2022/08/29 01:19:43;;;;;;;9.18;4.45;;;22.80;99.90;;;;;;4865536;29;20908;-89
2022/08/29 01:22:38;;;;;;;7.15;4.10;;;22.80;99.90;;;;;;4861948;29;20097;-88
2022/08/29 01:25:15;;;;;;;6.20;3.80;;;22.70;99.90;;;;;;4863115;29;20045;-88
2022/08/29 01:27:46;;;;;;;6.50;4.28;;;22.70;99.90;;;;;;4880800;29;20045;-89
2022/08/29 01:30:14;;;;;;;8.90;4.20;;;22.70;99.90;;;;;;4857601;29;20110;-88
2022/08/29 01:32:41;;;;;;;5.78;4.32;;;22.60;99.90;;;;;;4859884;29;20053;-89
2022/08/29 01:35:10;;;;;;;8.75;3.92;;;22.70;99.90;;;;;;4861414;29;20135;-89
2022/08/29 01:37:42;;;;;;;7.22;4.40;;;22.60;99.90;;;;;;4858139;29;20048;-89
2022/08/29 01:40:11;;;;;;;;;;;22.60;99.90;;;;;;4867405;29;20052;-90
2022/08/29 01:42:39;;;;;;;6.78;3.60;;;22.60;99.90;;;;;;4876468;29;19924;-89
2022/08/29 01:45:08;;;;;;;7.97;4.20;;;22.60;99.90;;;;;;4863913;29;20524;-90
2022/08/29 01:47:37;;;;;;;6.43;3.85;;;22.60;99.90;;;;;;4864637;29;20510;-89
2022/08/29 01:50:13;;;;;;;8.30;4.57;;;22.50;99.90;;;;;;4861408;29;20049;-89
2022/08/29 01:52:41;;;;;;;8.52;4.30;;;22.50;99.90;;;;;;4861299;29;20581;-89
2022/08/29 01:55:09;;;;;;;8.65;4.07;;;22.50;99.90;;;;;;4867130;29;20557;-89
2022/08/29 01:57:38;;;;;;;6.88;3.92;;;22.50;99.90;;;;;;4882286;29;20045;-89
2022/08/29 02:00:09;;;;;;;8.32;4.75;;;22.40;99.90;;;;;;4874680;29;20145;-89
2022/08/29 02:02:38;;;;;;;6.88;3.95;;;22.40;99.90;;;;;;4861466;29;20156;-89
2022/08/29 02:05:08;;;;;;;7.90;4.60;;;22.40;99.90;;;;;;4866293;29;20110;-89
2022/08/29 02:07:35;;;;;;;7.38;3.65;;;22.40;99.90;;;;;;4862803;29;20080;-89
2022/08/29 02:10:05;;;;;;;6.70;3.83;;;22.40;99.90;;;;;;4867676;29;20135;-90
2022/08/29 02:12:33;;;;;;;7.38;3.28;;;22.40;99.90;;;;;;4857796;29;20101;-88
2022/08/29 02:15:02;;;;;;;5.15;3.35;;;22.40;99.90;;;;;;4874368;29;20090;-89
2022/08/29 02:17:29;;;;;;;7.20;4.60;;;22.30;99.90;;;;;;4852971;29;20053;-90
2022/08/29 02:19:57;;;;;;;7.82;3.90;;;22.30;99.90;;;;;;4844522;29;20558;-90
2022/08/29 02:22:24;;;;;;;6.65;3.88;;;22.30;99.90;;;;;;4859300;29;20083;-88
2022/08/29 02:24:52;;;;;;;5.25;3.17;;;22.30;99.90;;;;;;4856501;29;20045;-89
2022/08/29 02:27:19;;;;;;;6.25;3.40;;;22.30;99.90;;;;;;4858543;29;20112;-88
2022/08/29 02:29:47;;;;;;;6.32;3.25;;;22.30;99.90;;;;;;4862141;29;20047;-89
2022/08/29 02:32:16;;;;;;;8.05;4.28;;;22.20;99.90;;;;;;4860807;29;20077;-89
2022/08/29 02:34:44;;;;;;;5.85;3.53;;;22.30;99.90;;;;;;4865523;29;20052;-89
2022/08/29 02:37:15;;;;;;;5.40;3.65;;;22.30;99.90;;;;;;4857175;29;20072;-87
2022/08/29 02:39:42;;;;;;;5.03;2.78;;;22.30;99.90;;;;;;4864969;29;20139;-86
2022/08/29 02:42:10;;;;;;;5.13;3.50;;;22.10;99.90;;;;;;4880073;29;20719;-86
2022/08/29 02:44:37;;;;;;;7.50;3.70;;;22.10;99.90;;;;;;4854115;29;20060;-88
2022/08/29 02:47:07;;;;;;;6.53;3.40;;;21.90;99.90;;;;;;4859650;29;20144;-89
2022/08/29 02:49:35;;;;;;;6.65;3.60;;;22.00;99.90;;;;;;4874295;29;20048;-87
2022/08/29 02:52:05;;;;;;;6.63;3.75;;;22.10;99.90;;;;;;4859387;29;20048;-86
2022/08/29 02:54:33;;;;;;;8.10;3.92;;;22.10;99.90;;;;;;4861247;29;20045;-89
2022/08/29 02:57:01;;;;;;;5.70;3.63;;;22.00;99.90;;;;;;4864184;29;20049;-87
2022/08/29 02:59:28;;;;;;;8.32;4.20;;;22.10;99.90;;;;;;4862186;29;20049;-88
2022/08/29 03:01:56;;;;;;;7.22;3.90;;;22.10;99.90;;;;;;4861125;29;20073;-89
2022/08/29 03:04:24;;;;;;;6.80;3.88;;;22.10;99.90;;;;;;4862624;29;20566;-89
2022/08/29 03:06:52;;;;;;;8.85;4.68;;;22.10;99.90;;;;;;4860772;29;20104;-89
2022/08/29 03:09:19;;;;;;;6.15;3.00;;;22.00;99.90;;;;;;4864974;29;20577;-90
2022/08/29 03:11:47;;;;;;;7.30;3.83;;;22.00;99.90;;;;;;4863743;29;20142;-89
2022/08/29 03:14:15;;;;;;;5.28;3.33;;;22.00;99.90;;;;;;4860439;29;20050;-89
2022/08/29 03:16:42;;;;;;;5.47;3.47;;;22.00;99.90;;;;;;4863035;29;20055;-88
2022/08/29 03:19:10;;;;;;;6.38;3.20;;;22.00;99.90;;;;;;4864612;29;20132;-88
2022/08/29 03:21:38;;;;;;;6.45;4.05;;;22.00;99.90;;;;;;4865453;29;20155;-88
2022/08/29 03:24:05;;;;;;;7.80;3.60;;;21.90;99.90;;;;;;4860014;29;20040;-89
2022/08/29 03:26:33;;;;;;;6.55;3.90;;;21.90;99.90;;;;;;4861235;29;20138;-88
2022/08/29 03:29:02;;;;;;;7.93;3.83;;;21.80;99.90;;;;;;4864161;29;20044;-88
2022/08/29 03:31:30;;;;;;;7.43;3.70;;;21.80;99.90;;;;;;4869014;29;20143;-88
2022/08/29 03:33:58;;;;;;;5.78;3.70;;;21.80;99.90;;;;;;4864005;29;20055;-89
2022/08/29 03:36:26;;;;;;;6.10;3.58;;;21.80;99.90;;;;;;4862049;29;20060;-89
2022/08/29 03:38:53;;;;;;;7.15;3.67;;;21.80;99.90;;;;;;4879990;29;20052;-89
2022/08/29 03:41:27;;;;;;;5.63;3.70;;;21.80;99.90;;;;;;4879728;29;20052;-89
2022/08/29 03:43:55;;;;;;;6.35;3.67;;;21.80;99.90;;;;;;4864984;29;20112;-90
2022/08/29 03:46:22;;;;;;;6.25;3.50;;;21.80;99.90;;;;;;4853456;29;20085;-90
2022/08/29 03:48:50;;;;;;;5.88;3.65;;;21.80;99.90;;;;;;4841873;29;20056;-89
2022/08/29 03:51:19;;;;;;;6.38;3.92;;;21.80;99.90;;;;;;4858027;29;20053;-89
2022/08/29 03:53:47;;;;;;;6.18;3.70;;;21.70;99.90;;;;;;4844516;29;20073;-89
2022/08/29 03:56:15;;;;;;;6.28;4.00;;;21.70;99.90;;;;;;4861629;29;20041;-89
2022/08/29 03:58:46;;;;;;;5.63;3.53;;;21.60;99.90;;;;;;4850063;29;20041;-89
2022/08/29 04:01:25;;;;;;;7.90;4.40;;;21.70;99.90;;;;;;4840598;29;20069;-89
2022/08/29 04:03:54;;;;;;;6.80;4.30;;;21.60;99.90;;;;;;4844454;29;20119;-89
2022/08/29 04:06:23;;;;;;;10.05;4.43;;;21.60;99.90;;;;;;4841070;29;20057;-88
2022/08/29 04:08:52;;;;;;;6.85;3.70;;;21.60;99.90;;;;;;4856486;29;20049;-88
2022/08/29 04:11:22;;;;;;;7.88;4.05;;;21.60;99.90;;;;;;4860560;29;20140;-87
2022/08/29 04:13:51;;;;;;;9.32;3.97;;;21.50;99.90;;;;;;4859894;29;20050;-89
2022/08/29 04:16:24;;;;;;;7.80;3.90;;;21.60;99.90;;;;;;4844340;29;20045;-88
2022/08/29 04:18:57;;;;;;;6.35;3.78;;;21.60;99.90;;;;;;4844708;29;20627;-89
2022/08/29 04:21:25;;;;;;;9.68;4.85;;;21.60;99.90;;;;;;4860975;29;20147;-88
2022/08/29 04:23:53;;;;;;;7.47;4.57;;;21.60;99.90;;;;;;4846510;29;20463;-89
2022/08/29 04:26:21;;;;;;;7.80;4.18;;;21.60;99.90;;;;;;4864127;29;20494;-88
2022/08/29 04:29:09;;;;;;;8.70;4.35;;;21.50;99.90;;;;;;4860511;29;20045;-88
2022/08/29 04:31:38;;;;;;;6.88;4.03;;;21.60;99.90;;;;;;4845672;29;20525;-89
2022/08/29 04:34:08;;;;;;;10.05;4.57;;;21.60;99.90;;;;;;4851348;29;20072;-88
2022/08/29 04:36:38;;;;;;;7.72;4.28;;;21.60;99.90;;;;;;4848335;29;20124;-88
2022/08/29 04:39:06;;;;;;;8.50;4.18;;;21.60;99.90;;;;;;4849087;29;20720;-88
2022/08/29 04:41:35;;;;;;;8.00;4.32;;;21.70;99.90;;;;;;4864388;29;20056;-88
2022/08/29 04:44:04;;;;;;;6.93;4.15;;;21.70;99.90;;;;;;4859691;29;20044;-88
2022/08/29 04:46:32;;;;;;;7.38;4.70;;;21.60;99.90;;;;;;4863969;29;20056;-88
2022/08/29 04:49:00;;;;;;;10.65;4.60;;;21.70;99.90;;;;;;4878313;29;20132;-87
2022/08/29 04:51:33;;;;;;;8.60;4.53;;;21.70;99.90;;;;;;4867639;29;20057;-88
2022/08/29 04:54:02;;;;;;;10.00;4.40;;;21.70;99.90;;;;;;4863039;29;20092;-88
2022/08/29 04:56:29;;;;;;;8.27;4.95;;;21.60;99.90;;;;;;4852561;29;20059;-88
2022/08/29 04:58:57;;;;;;;8.48;5.03;;;21.60;99.90;;;;;;4865053;29;20064;-86
2022/08/29 05:01:25;;;;;;;9.32;4.95;;;21.70;99.90;;;;;;4861014;29;20055;-89
2022/08/29 05:03:54;;;;;;;6.88;4.60;;;21.70;99.90;;;;;;4861200;29;20136;-89
2022/08/29 05:06:22;;;;;;;7.28;4.55;;;21.70;99.90;;;;;;4871817;29;20049;-89
2022/08/29 05:08:51;;;;;;;8.40;4.75;;;21.70;99.90;;;;;;4866298;29;20045;-88
2022/08/29 05:11:27;;;;;;;9.10;4.72;;;21.80;99.90;;;;;;4882497;29;20124;-88
2022/08/29 05:13:56;;;;;;;10.80;5.22;;;21.80;99.90;;;;;;4862028;29;20502;-88
2022/08/29 05:16:24;;;;;;;6.93;4.57;;;21.80;99.90;;;;;;4864093;29;20566;-88
2022/08/29 05:18:51;;;;;;;11.52;5.15;;;21.80;99.90;;;;;;4864108;29;20052;-88
2022/08/29 05:21:36;;;;;;;8.50;5.15;;;21.80;99.90;;;;;;4865552;29;20139;-88
2022/08/29 05:24:08;;;;;;;10.27;5.35;;;21.90;99.90;;;;;;4881119;29;21011;-88
2022/08/29 05:26:42;;;;;;;8.05;4.82;;;21.90;99.90;;;;;;4862506;29;20053;-88
2022/08/29 05:29:12;;;;;;;8.90;5.45;;;21.90;99.90;;;;;;4859992;29;20374;-88
2022/08/29 05:31:40;;;;;;;8.23;5.20;;;22.00;99.90;;;;;;4878812;29;20581;-88
2022/08/29 05:34:11;;;;;;;10.93;5.30;;;22.10;99.90;;;;;;4866173;29;20044;-88
2022/08/29 05:37:00;;;;;;;9.70;5.35;;;22.10;99.90;;;;;;4868636;29;20045;-88
2022/08/29 05:39:28;;;;;;;9.82;5.60;;;22.20;99.90;;;;;;4881121;29;20052;-88
2022/08/29 05:41:56;;;;;;;10.20;5.50;;;22.20;99.90;;;;;;4861391;29;20059;-88
2022/08/29 05:44:25;;;;;;;7.85;4.95;;;22.20;99.90;;;;;;4857331;29;20175;-87
2022/08/29 05:46:52;;;;;;;8.43;5.18;;;22.20;99.90;;;;;;4863082;29;20052;-86
2022/08/29 05:49:20;;;;;;;8.75;5.32;;;22.20;99.90;;;;;;4858098;29;20077;-86
2022/08/29 05:51:50;;;;;;;7.90;4.88;;;22.30;99.90;;;;;;4865313;29;20565;-87
2022/08/29 05:54:18;;;;;;;6.20;4.57;;;22.30;99.90;;;;;;4865886;29;20421;-88
2022/08/29 05:56:45;;;;;;;7.43;4.97;;;22.30;99.90;;;;;;4879878;29;20049;-88
2022/08/29 05:59:15;;;;;;;8.27;4.63;;;22.50;99.90;;;;;;4865812;29;20047;-86
2022/08/29 06:01:44;;;;;;;7.63;4.70;;;22.60;99.90;;;;;;4863840;29;20053;-88
2022/08/29 06:04:12;;;;;;;8.75;4.40;;;22.60;99.90;;;;;;4860691;29;20048;-88
2022/08/29 06:06:40;;;;;;;7.68;4.72;;;22.70;99.90;;;;;;4879857;29;20049;-87
2022/08/29 06:09:08;;;;;;;6.93;4.78;;;22.80;99.90;;;;;;4880245;29;20560;-87
2022/08/29 06:11:35;;;;;;;4.82;3.70;;;22.90;99.90;;;;;;4865009;29;20052;-87
2022/08/29 06:14:03;;;;;;;6.25;4.43;;;23.00;99.90;;;;;;4865057;29;20053;-86
2022/08/29 06:16:31;;;;;;;5.88;4.13;;;23.10;99.90;;;;;;4865132;29;20087;-86
2022/08/29 06:18:59;;;;;;;6.78;3.95;;;23.20;99.90;;;;;;4865274;29;20044;-89
2022/08/29 06:21:26;;;;;;;8.68;4.47;;;23.30;99.90;;;;;;4862185;29;20502;-86
2022/08/29 06:23:57;;;;;;;10.30;4.50;;;23.40;99.90;;;;;;4877407;29;20052;-86
2022/08/29 06:26:26;;;;;;;8.77;4.03;;;23.60;99.90;;;;;;4879190;29;20139;-85
2022/08/29 06:28:53;;;;;;;5.95;3.90;;;23.60;99.90;;;;;;4872744;29;20048;-86
2022/08/29 06:31:25;;;;;;;5.72;3.70;;;23.70;99.90;;;;;;4860220;29;20063;-88
2022/08/29 06:33:55;;;;;;;7.80;4.35;;;23.70;99.50;;;;;;4857675;29;21414;-87
2022/08/29 06:36:24;;;;;;;7.45;3.97;;;23.60;99.40;;;;;;4876825;29;20108;-87
2022/08/29 06:38:55;;;;;;;8.00;4.18;;;23.50;99.90;;;;;;4864023;29;20099;-86
2022/08/29 06:41:23;;;;;;;7.45;4.25;;;23.70;99.90;;;;;;4876633;29;20574;-87
2022/08/29 06:43:51;;;;;;;6.35;3.80;;;23.90;99.90;;;;;;4860446;29;20544;-85
2022/08/29 06:46:28;;;;;;;6.68;4.10;;;24.00;98.60;;;;;;4855999;29;20045;-88
2022/08/29 06:48:57;;;;;;;6.60;4.15;;;24.10;97.70;;;;;;4867930;29;20048;-86
2022/08/29 06:51:26;;;;;;;8.50;4.22;;;24.20;97.30;;;;;;4860425;29;20746;-85
2022/08/29 06:53:54;;;;;;;8.45;4.03;;;24.10;97.20;;;;;;4870805;29;20063;-86
2022/08/29 06:56:21;;;;;;;6.25;3.78;;;24.10;97.40;;;;;;4873201;29;20045;-87
2022/08/29 06:58:52;;;;;;;6.50;3.72;;;24.10;97.60;;;;;;4855261;29;20052;-88
2022/08/29 07:01:21;;;;;;;5.82;3.63;;;24.30;97.20;;;;;;4854054;29;20574;-85
2022/08/29 07:03:51;;;;;;;5.80;3.38;;;24.40;96.60;;;;;;4876309;29;20051;-87
2022/08/29 07:06:20;;;;;;;6.03;3.35;;;24.60;98.30;;;;;;4872616;29;20498;-84
2022/08/29 07:08:47;;;;;;;6.03;4.03;;;24.80;95.90;;;;;;4866127;29;20096;-92
2022/08/29 07:11:24;;;;;;;8.88;3.65;;;24.80;95.50;;;;;;4876056;29;20036;-86
2022/08/29 07:13:51;;;;;;;7.80;3.75;;;25.00;94.80;;;;;;4857189;29;20085;-88
2022/08/29 07:16:18;;;;;;;7.97;3.13;;;25.00;93.70;;;;;;4876613;29;20554;-88
2022/08/29 07:18:49;;;;;;;5.78;3.10;;;25.10;94.20;;;;;;4859656;29;20120;-87
2022/08/29 07:21:18;;;;;;;5.10;3.67;;;25.30;93.20;;;;;;4878010;29;20549;-86
2022/08/29 07:23:48;;;;;;;4.82;3.28;;;25.30;92.30;;;;;;4862554;29;20080;-84
2022/08/29 07:26:31;;;;;;;6.18;3.33;;;25.30;92.00;;;;;;4875304;29;20045;-86
2022/08/29 07:29:04;;;;;;;6.18;3.50;;;25.30;92.20;;;;;;4858801;29;20079;-84
2022/08/29 07:31:32;;;;;;;4.88;3.25;;;25.40;91.80;;;;;;4851510;29;20046;-84
2022/08/29 07:33:59;;;;;;;5.13;3.28;;;25.50;91.80;;;;;;4871010;29;20048;-82
2022/08/29 07:36:32;;;;;;;7.22;3.42;;;25.60;91.50;;;;;;4862377;29;20152;-88
2022/08/29 07:39:03;;;;;;;5.03;2.70;;;25.60;91.40;;;;;;4857781;29;20048;-85
2022/08/29 07:41:31;;;;;;;6.95;3.33;;;25.50;90.80;;;;;;4872592;29;20083;-84
2022/08/29 07:43:58;;;;;;;3.70;3.13;;;25.30;91.80;;;;;;4869623;29;20136;-86
2022/08/29 07:46:26;;;;;;;5.22;3.20;;;25.30;91.40;;;;;;4873860;29;20068;-87
2022/08/29 07:48:56;;;;;;;3.97;3.00;;;25.40;91.50;;;;;;4857462;29;20041;-84
2022/08/29 07:51:24;;;;;;;3.67;2.97;;;25.40;91.50;;;;;;4857857;29;20116;-81
2022/08/29 07:53:52;;;;;;;4.15;2.90;;;25.50;91.40;;;;;;4878409;29;20056;-85
2022/08/29 07:56:23;;;;;;;5.28;3.03;;;25.60;91.20;;;;;;4858427;29;20045;-83
2022/08/29 07:58:52;;;;;;;5.32;3.05;;;25.30;91.40;;;;;;4865065;29;20049;-83
2022/08/29 08:01:20;;;;;;;6.93;3.45;;;25.60;91.40;;;;;;4873834;29;20052;-83
2022/08/29 08:03:49;;;;;;;7.82;3.25;;;25.60;90.80;;;;;;4884202;29;20459;-83
2022/08/29 08:06:22;;;;;;;5.47;3.40;;;25.70;90.80;;;;;;4872323;29;20104;-86
2022/08/29 08:08:53;;;;;;;6.15;3.88;;;25.80;90.60;;;;;;4871102;29;20086;-82
2022/08/29 08:11:23;;;;;;;4.57;3.17;;;25.80;90.80;;;;;;4870857;29;20052;-81
2022/08/29 08:13:56;;;;;;;5.15;3.00;;;25.90;90.10;;;;;;4858708;29;20139;-83
2022/08/29 08:16:26;;;;;;;6.50;3.45;;;25.70;89.90;;;;;;4873424;29;20135;-85
2022/08/29 08:18:55;;;;;;;6.20;3.30;;;25.80;90.20;;;;;;4858669;29;20048;-83
2022/08/29 08:21:23;;;;;;;4.68;3.00;;;25.70;89.00;;;;;;4847461;29;20069;-83
2022/08/29 08:23:51;;;;;;;7.07;2.90;;;25.80;90.20;;;;;;4856404;29;20056;-84
2022/08/29 08:26:19;;;;;;;5.10;2.50;;;26.00;90.30;;;;;;4869853;29;20061;-82
2022/08/29 08:28:47;;;;;;;4.82;2.95;;;26.00;90.20;;;;;;4855385;29;20048;-81
2022/08/29 08:31:15;;;;;;;5.82;3.40;;;25.90;88.80;;;;;;4867638;29;20064;-83
2022/08/29 08:33:43;;;;;;;8.20;3.63;;;25.70;88.90;;;;;;4857073;29;20059;-82
2022/08/29 08:36:19;;;;;;;5.97;3.05;;;25.70;90.10;;;;;;4856247;29;20045;-84
2022/08/29 08:38:48;;;;;;;5.47;2.70;;;25.80;90.50;;;;;;4856544;29;20052;-82
2022/08/29 08:41:21;;;;;;;6.53;3.20;;;25.90;90.60;;;;;;4854105;29;20140;-83
2022/08/29 08:44:01;;;;;;;5.57;3.42;;;25.90;90.20;;;;;;4853465;29;20497;-83
2022/08/29 08:46:46;;;;;;;4.35;3.20;;;25.80;89.20;;;;;;4861952;29;20064;-82
2022/08/29 08:49:21;;;;;;;6.68;3.40;;;25.90;90.50;;;;;;4867242;29;20049;-83
2022/08/29 08:51:57;;;;;;;5.10;3.17;;;26.00;90.30;;;;;;4860145;29;20057;-85
2022/08/29 08:54:32;;;;;;;7.53;3.47;;;26.00;89.40;;;;;;4870811;29;20061;-84
2022/08/29 08:57:08;;;;;;;4.75;2.78;;;26.00;88.90;;;;;;4869390;29;20040;-83
2022/08/29 08:59:42;;;;;;;5.07;3.30;;;26.10;88.50;;;;;;4852493;29;20140;-82
2022/08/29 09:02:25;;;;;;;5.70;3.00;;;26.10;89.00;;;;;;4868911;29;20086;-83
2022/08/29 09:05:23;;;;;;;4.57;3.28;;;26.20;90.10;;;;;;4885045;29;20136;-83
2022/08/29 09:07:55;;;;;;;5.78;3.58;;;26.20;90.20;;;;;;4869936;29;20147;-83
2022/08/29 09:10:31;;;;;;;;;;;26.20;88.30;;;;;;4877806;29;20056;-83
2022/08/29 09:13:26;;;;;;;5.60;3.35;;;26.20;88.40;;;;;;4853276;29;19927;-81
2022/08/29 09:15:57;;;;;;;5.22;2.88;;;26.30;87.10;;;;;;4884102;29;20720;-84
2022/08/29 09:18:40;;;;;;;3.80;3.10;;;26.20;87.60;;;;;;4855532;29;20059;-82
2022/08/29 09:21:17;;;;;;;8.18;3.83;;;26.30;86.90;;;;;;4856240;29;20048;-83
2022/08/29 09:24:11;;;;;;;4.95;3.33;;;26.40;87.90;;;;;;4858139;29;20049;-82
2022/08/29 09:26:39;;;;;;;5.65;3.17;;;26.30;85.50;;;;;;4860490;29;20068;-83
2022/08/29 09:29:10;;;;;;;5.05;2.80;;;26.40;84.50;;;;;;4848149;29;20067;-82
2022/08/29 09:31:38;;;;;;;5.57;3.08;;;26.40;84.60;;;;;;4856428;29;20179;-84
2022/08/29 09:34:11;;;;;;;7.18;3.35;;;26.60;85.30;;;;;;4852256;29;20053;-83
2022/08/29 09:36:49;;;;;;;6.18;2.97;;;26.50;84.70;;;;;;4854546;29;20068;-84
2022/08/29 09:39:27;;;;;;;5.63;3.83;;;26.40;84.90;;;;;;4871546;29;20052;-82
2022/08/29 09:41:57;;;;;;;5.47;3.47;;;26.20;85.40;;;;;;4889450;29;20167;-82
2022/08/29 09:44:34;;;;;;;5.47;3.47;;;26.30;86.40;;;;;;4859342;29;20430;-82
2022/08/29 09:47:13;;;;;;;5.38;2.60;;;26.50;84.10;;;;;;4852298;29;20084;-87
2022/08/29 09:50:17;;;;;;;7.03;3.28;;;26.70;85.00;;;;;;4875729;29;20052;-87
2022/08/29 09:52:51;;;;;;;5.88;2.80;;;26.80;85.20;;;;;;4862252;29;20959;-88
2022/08/29 09:55:27;;;;;;;8.10;3.53;;;26.90;83.00;;;;;;4861631;29;20055;-88
2022/08/29 09:58:01;;;;;;;3.38;2.88;;;27.10;82.00;;;;;;4859852;29;20045;-89
2022/08/29 10:00:52;;;;;;;4.82;3.25;;;27.10;81.50;;;;;;4879289;29;20498;-85
2022/08/29 10:03:24;;;;;;;5.35;2.47;;;27.00;80.10;;;;;;4862704;29;20056;-88
2022/08/29 10:06:11;;;;;;;5.15;2.53;;;26.80;81.70;;;;;;4866833;29;20075;-90
2022/08/29 10:08:40;;;;;;;6.07;2.80;;;26.80;82.70;;;;;;4866333;29;20104;-89
2022/08/29 10:11:27;;;;;;;4.80;2.67;;;27.00;80.70;;;;;;4865594;29;20128;-90
2022/08/29 10:14:11;;;;;;;3.80;2.92;;;27.20;82.30;;;;;;4865877;29;20056;-93
2022/08/29 10:18:19;;;;;;;5.65;2.50;;;27.50;81.20;;;;;;4863911;29;20140;-88
2022/08/29 10:19:46;;;;;;;222.45;13.70;;;27.50;78.60;;;;;;4876189;29;20063;-89
2022/08/29 10:22:51;;;;;;;3.97;2.30;;;27.50;76.50;;;;;;4865322;29;20094;-87
2022/08/29 10:25:21;;;;;;;5.50;3.13;;;27.50;75.40;;;;;;4878034;29;20405;-87
2022/08/29 10:27:59;;;;;;;3.97;2.70;;;27.50;76.20;;;;;;4865159;29;20053;-85
2022/08/29 10:30:31;;;;;;;5.45;2.15;;;27.50;76.80;;;;;;4864647;29;20116;-87
2022/08/29 10:33:03;;;;;;;5.88;2.92;;;27.50;76.00;;;;;;4862778;29;20052;-85
2022/08/29 10:35:42;;;;;;;4.35;2.70;;;27.50;76.60;;;;;;4882062;29;20068;-88
2022/08/29 10:38:38;;;;;;;4.70;2.72;;;27.50;76.10;;;;;;4857650;29;20120;-87
2022/08/29 10:41:18;;;;;;;5.35;2.80;;;27.30;75.90;;;;;;4853048;29;20047;-87
2022/08/29 10:44:09;;;;;;;7.13;2.88;;;27.10;76.80;;;;;;4864043;29;20041;-86
2022/08/29 10:46:54;;;;;;;5.55;2.95;;;27.10;76.90;;;;;;4874211;29;20048;-87
2022/08/29 10:49:49;;;;;;;4.07;2.78;;;27.20;77.00;;;;;;4880049;29;20045;-88
2022/08/29 10:52:29;;;;;;;4.75;2.90;;;27.10;76.30;;;;;;4876991;29;20501;-88
2022/08/29 10:55:26;;;;;;;4.55;2.70;;;27.30;78.20;;;;;;4878264;29;20058;-87
2022/08/29 10:58:06;;;;;;;3.15;2.33;;;27.30;77.60;;;;;;4860226;29;20048;-87
2022/08/29 11:00:42;;;;;;;3.45;2.35;;;27.20;77.00;;;;;;4858102;29;20057;-88
2022/08/29 11:03:18;;;;;;;3.97;2.80;;;27.20;78.30;;;;;;4876848;29;20051;-87
2022/08/29 11:05:56;;;;;;;4.78;3.20;;;27.10;79.00;;;;;;4880524;29;20071;-87
2022/08/29 11:08:34;;;;;;;6.13;3.35;;;27.20;80.50;;;;;;4879745;29;20429;-87
2022/08/29 11:11:03;;;;;;;5.97;3.38;;;27.30;79.50;;;;;;4862563;29;20517;-89
2022/08/29 11:14:00;;;;;;;6.80;3.88;;;27.10;79.40;;;;;;4876411;29;20049;-86
2022/08/29 11:16:44;;;;;;;4.72;3.10;;;27.00;79.50;;;;;;4876143;29;20103;-88
2022/08/29 11:19:48;;;;;;;5.78;3.65;;;26.90;80.00;;;;;;4875224;29;20051;-87
2022/08/29 11:22:21;;;;;;;7.55;3.83;;;26.90;79.70;;;;;;4840270;29;20075;-87
2022/08/29 11:25:01;;;;;;;6.50;3.30;;;26.80;79.70;;;;;;4862181;29;20044;-89
2022/08/29 11:28:24;;;;;;;5.10;3.53;;;26.80;80.10;;;;;;4870455;29;20250;-90
2022/08/29 11:31:13;;;;;;;7.13;3.63;;;26.80;80.30;;;;;;4834304;29;20056;-91
2022/08/29 11:34:09;;;;;;;4.90;3.67;;;26.70;79.30;;;;;;4853115;29;20079;-91
2022/08/29 11:37:04;;;;;;;4.03;2.97;;;26.60;80.50;;;;;;4871614;29;20063;-89
2022/08/29 11:39:49;;;;;;;5.03;3.42;;;26.50;80.10;;;;;;4856451;29;20178;-88
2022/08/29 11:42:22;;;;;;;5.55;3.13;;;26.60;80.30;;;;;;4857110;29;20052;-88
2022/08/29 11:45:14;;;;;;;5.00;3.17;;;26.60;79.50;;;;;;4869023;29;20053;-89
2022/08/29 11:47:44;;;;;;;6.72;3.30;;;26.60;79.60;;;;;;4861013;29;20056;-88
2022/08/29 11:50:15;;;;;;;7.38;3.40;;;26.70;79.80;;;;;;4873827;29;20052;-88
2022/08/29 11:52:54;;;;;;;7.35;3.00;;;26.60;78.60;;;;;;4857706;29;20045;-90
2022/08/29 11:55:32;;;;;;;4.45;2.92;;;26.60;78.40;;;;;;4862965;29;20135;-89
2022/08/29 11:58:19;;;;;;;8.05;3.38;;;26.70;80.10;;;;;;4858147;29;20048;-90
2022/08/29 12:00:55;;;;;;;7.63;3.20;;;26.70;79.20;;;;;;4857586;29;20037;-89
2022/08/29 12:03:32;;;;;;;4.90;3.17;;;26.70;78.90;;;;;;4869451;29;20053;-90
2022/08/29 12:06:13;;;;;;;5.57;3.50;;;26.70;77.30;;;;;;4871956;29;20041;-89
2022/08/29 12:09:00;;;;;;;7.53;3.73;;;26.60;78.20;;;;;;4873512;29;20076;-89
2022/08/29 12:11:58;;;;;;;6.65;3.55;;;26.60;79.00;;;;;;4856852;29;20068;-89
2022/08/29 12:14:54;;;;;;;6.25;4.03;;;26.60;79.90;;;;;;4857221;29;20113;-90
2022/08/29 12:17:21;;;;;;;4.28;2.55;;;26.70;80.90;;;;;;4872651;29;20159;-88
2022/08/29 12:19:59;;;;;;;3.92;3.22;;;26.70;79.10;;;;;;4880230;29;20059;-91
2022/08/29 12:22:48;;;;;;;4.95;2.58;;;26.90;79.40;;;;;;4855680;29;20048;-90
2022/08/29 12:25:42;;;;;;;3.55;2.42;;;27.20;78.20;;;;;;4860674;29;20073;-89
2022/08/29 12:28:29;;;;;;;3.08;1.85;;;27.30;77.50;;;;;;4857981;29;20446;-88
2022/08/29 12:30:57;;;;;;;3.78;1.90;;;27.30;76.50;;;;;;4868949;29;20079;-88
2022/08/29 12:33:39;;;;;;;2.80;1.95;;;27.20;76.50;;;;;;4858721;29;20504;-88
2022/08/29 12:36:09;;;;;;;3.25;2.20;;;27.20;77.10;;;;;;4871048;29;20089;-91
2022/08/29 12:38:54;;;;;;;3.20;2.20;;;27.40;75.60;;;;;;4853119;29;20105;-87
2022/08/29 12:41:49;;;;;;;4.35;2.03;;;27.20;75.00;;;;;;4872323;29;20108;-88
2022/08/29 12:44:23;;;;;;;3.65;1.83;;;27.10;74.90;;;;;;4861411;29;20051;-90
2022/08/29 12:46:54;;;;;;;3.20;1.75;;;27.10;75.70;;;;;;4859581;29;20051;-90
2022/08/29 12:49:25;;;;;;;2.15;1.42;;;27.20;75.50;;;;;;4863515;29;20524;-90
2022/08/29 12:52:02;;;;;;;4.60;1.67;;;27.20;74.80;;;;;;4860297;29;20052;-90
2022/08/29 12:54:40;;;;;;;2.35;1.60;;;27.30;74.20;;;;;;4878897;29;20052;-90
2022/08/29 12:57:20;;;;;;;3.28;1.98;;;27.60;74.20;;;;;;4860268;29;20044;-88
2022/08/29 12:59:50;;;;;;;3.38;1.70;;;27.80;74.70;;;;;;4862416;29;20049;-91
2022/08/29 13:02:31;;;;;;;3.25;1.75;;;28.00;75.30;;;;;;4864988;29;20045;-88
2022/08/29 13:04:59;;;;;;;2.73;1.67;;;28.10;73.20;;;;;;4862866;29;20065;-90
2022/08/29 13:07:28;;;;;;;3.58;1.83;;;28.00;73.10;;;;;;4860563;29;20052;-88
2022/08/29 13:09:59;;;;;;;6.03;1.70;;;28.00;72.20;;;;;;4859123;29;20719;-89
2022/08/29 13:12:33;;;;;;;5.00;1.47;;;27.90;72.50;;;;;;4867088;29;20124;-90
2022/08/29 13:15:06;;;;;;;5.63;1.58;;;28.00;72.70;;;;;;4861490;29;20061;-89
2022/08/29 13:17:39;;;;;;;2.65;1.35;;;28.10;72.70;;;;;;4867904;29;20483;-88
2022/08/29 13:20:44;;;;;;;3.90;1.85;;;27.80;71.90;;;;;;4874803;29;20048;-87
2022/08/29 13:23:18;;;;;;;2.28;1.10;;;27.80;72.20;;;;;;4862297;29;20052;-93